ENLK Airport Information

Runway Information
Runway 03 Length 2881 ft width 0 ft
Elevation 71 ft Threshold 0 ft Heading 0
Runway 21 Length 2881 ft Width 0 ft
Elevation 72 ft Threshold 0 ft Heading 0
Airport Frequencies
Airport Navaids
Type NDB Name Sandsund Frequency 348 KHZ
Airport Weather Information & NOTAM
ADDS - METARS form results

(2033 UTC 23 September 2018)
Data provider http://aviationweather.gov/metar/data/
 
METAR text: ENLK 232020Z 30021G40KT 9999 RA FEW015 SCT020 BKN030 06/03 Q0989
Conditions at: ENLK (LEKNES , NO) observed 2020 UTC 23 September 2018
Temperature: 6.0°C (43°F)
Dewpoint: 3.0°C (37°F) [RH = 81%]
Pressure (altimeter): 29.20 inches Hg (989.0 mb)
Winds: from the WNW (300 degrees) at 24 MPH (21 knots; 10.8 m/s)
gusting to 46 MPH (40 knots; 20.6 m/s)
Visibility: 6 or more miles (10+ km)
Ceiling: 3000 feet AGL
Clouds: few clouds at 1500 feet AGL
scattered clouds at 2000 feet AGL
broken clouds at 3000 feet AGL
Weather: RA  (moderate rain)

METAR text: ENLK 231950Z 30021G40KT 9999 RA FEW015 SCT020 BKN030 06/03 Q0989
Conditions at: ENLK (LEKNES , NO) observed 1950 UTC 23 September 2018
Temperature: 6.0°C (43°F)
Dewpoint: 3.0°C (37°F) [RH = 81%]
Pressure (altimeter): 29.20 inches Hg (989.0 mb)
Winds: from the WNW (300 degrees) at 24 MPH (21 knots; 10.8 m/s)
gusting to 46 MPH (40 knots; 20.6 m/s)
Visibility: 6 or more miles (10+ km)
Ceiling: 3000 feet AGL
Clouds: few clouds at 1500 feet AGL
scattered clouds at 2000 feet AGL
broken clouds at 3000 feet AGL
Weather: RA  (moderate rain)